sensor_id;sensor_type;location;lat;lon;timestamp;pressure;altitude;pressure_sealevel;temperature;humidity
11041;BME280;5573;49.592;8.662;2022-12-18T00:00:14;101163.16;;;-7.91;100.00
11041;BME280;5573;49.592;8.662;2022-12-18T00:03:04;101151.91;;;-7.93;100.00
11041;BME280;5573;49.592;8.662;2022-12-18T00:05:52;101153.47;;;-8.04;100.00
11041;BME280;5573;49.592;8.662;2022-12-18T00:08:43;101146.59;;;-8.12;100.00
11041;BME280;5573;49.592;8.662;2022-12-18T00:11:32;101041.72;;;-8.80;100.00
11041;BME280;5573;49.592;8.662;2022-12-18T00:14:20;101137.69;;;-8.24;100.00
11041;BME280;5573;49.592;8.662;2022-12-18T00:17:08;101142.97;;;-8.36;100.00
11041;BME280;5573;49.592;8.662;2022-12-18T00:19:56;101141.44;;;-8.62;100.00
11041;BME280;5573;49.592;8.662;2022-12-18T00:22:44;101144.38;;;-8.89;100.00
11041;BME280;5573;49.592;8.662;2022-12-18T00:25:34;101138.25;;;-8.89;100.00
11041;BME280;5573;49.592;8.662;2022-12-18T00:28:22;101132.25;;;-8.85;100.00
11041;BME280;5573;49.592;8.662;2022-12-18T00:31:13;101138.66;;;-8.92;100.00
11041;BME280;5573;49.592;8.662;2022-12-18T00:34:02;101149.88;;;-8.84;100.00
11041;BME280;5573;49.592;8.662;2022-12-18T00:36:51;101152.53;;;-8.84;100.00
11041;BME280;5573;49.592;8.662;2022-12-18T00:39:41;101146.91;;;-8.75;100.00
11041;BME280;5573;49.592;8.662;2022-12-18T00:42:31;101151.75;;;-8.66;100.00
11041;BME280;5573;49.592;8.662;2022-12-18T00:45:36;101144.91;;;-8.80;100.00
11041;BME280;5573;49.592;8.662;2022-12-18T00:48:25;101142.91;;;-8.85;100.00
11041;BME280;5573;49.592;8.662;2022-12-18T00:51:14;101149.44;;;-8.81;100.00
11041;BME280;5573;49.592;8.662;2022-12-18T00:54:02;101154.91;;;-8.75;100.00
11041;BME280;5573;49.592;8.662;2022-12-18T00:56:50;101156.84;;;-8.83;100.00
11041;BME280;5573;49.592;8.662;2022-12-18T00:59:40;101153.19;;;-8.88;100.00
11041;BME280;5573;49.592;8.662;2022-12-18T01:02:28;101156.72;;;-8.69;100.00
11041;BME280;5573;49.592;8.662;2022-12-18T01:05:16;101156.56;;;-8.74;100.00
11041;BME280;5573;49.592;8.662;2022-12-18T01:08:05;101153.63;;;-8.66;100.00
11041;BME280;5573;49.592;8.662;2022-12-18T01:10:53;101156.81;;;-8.57;100.00
11041;BME280;5573;49.592;8.662;2022-12-18T01:13:42;101144.66;;;-8.53;100.00
11041;BME280;5573;49.592;8.662;2022-12-18T01:16:32;101138.56;;;-8.61;100.00
11041;BME280;5573;49.592;8.662;2022-12-18T01:19:20;101148.41;;;-8.61;100.00
11041;BME280;5573;49.592;8.662;2022-12-18T01:22:08;101142.84;;;-8.78;100.00
11041;BME280;5573;49.592;8.662;2022-12-18T01:24:57;101139.19;;;-8.84;100.00
11041;BME280;5573;49.592;8.662;2022-12-18T01:27:45;101146.28;;;-8.96;100.00
11041;BME280;5573;49.592;8.662;2022-12-18T01:30:34;101141.34;;;-9.17;100.00
11041;BME280;5573;49.592;8.662;2022-12-18T01:33:23;101146.09;;;-9.20;100.00
11041;BME280;5573;49.592;8.662;2022-12-18T01:36:17;101116.94;;;-9.39;100.00
11041;BME280;5573;49.592;8.662;2022-12-18T01:39:07;101156.41;;;-9.30;100.00
11041;BME280;5573;49.592;8.662;2022-12-18T01:41:56;101157.94;;;-9.41;100.00
11041;BME280;5573;49.592;8.662;2022-12-18T01:45:02;101150.16;;;-9.42;100.00
11041;BME280;5573;49.592;8.662;2022-12-18T01:47:53;101144.66;;;-9.47;100.00
11041;BME280;5573;49.592;8.662;2022-12-18T01:50:43;101148.63;;;-9.56;100.00
11041;BME280;5573;49.592;8.662;2022-12-18T01:53:32;101152.84;;;-9.49;100.00
11041;BME280;5573;49.592;8.662;2022-12-18T01:56:21;101147.28;;;-9.72;100.00
11041;BME280;5573;49.592;8.662;2022-12-18T01:59:11;101158.41;;;-9.82;100.00
11041;BME280;5573;49.592;8.662;2022-12-18T02:02:02;101182.94;;;-9.73;100.00
11041;BME280;5573;49.592;8.662;2022-12-18T02:04:51;101163.06;;;-9.71;100.00
11041;BME280;5573;49.592;8.662;2022-12-18T02:07:54;101145.25;;;-9.77;100.00
11041;BME280;5573;49.592;8.662;2022-12-18T02:10:51;101151.44;;;-9.83;100.00
11041;BME280;5573;49.592;8.662;2022-12-18T02:13:46;101166.78;;;-9.78;100.00
11041;BME280;5573;49.592;8.662;2022-12-18T02:16:44;101162.53;;;-9.93;100.00
11041;BME280;5573;49.592;8.662;2022-12-18T02:19:47;101176.38;;;-9.71;100.00
11041;BME280;5573;49.592;8.662;2022-12-18T02:22:57;101176.84;;;-9.49;100.00
11041;BME280;5573;49.592;8.662;2022-12-18T02:26:12;101144.50;;;-9.52;100.00
11041;BME280;5573;49.592;8.662;2022-12-18T02:29:13;101167.34;;;-9.70;100.00
11041;BME280;5573;49.592;8.662;2022-12-18T02:32:07;101163.19;;;-9.97;100.00
11041;BME280;5573;49.592;8.662;2022-12-18T02:34:59;101166.28;;;-10.00;100.00
11041;BME280;5573;49.592;8.662;2022-12-18T02:37:53;101161.31;;;-9.90;100.00
11041;BME280;5573;49.592;8.662;2022-12-18T02:40:44;101141.72;;;-10.03;100.00
11041;BME280;5573;49.592;8.662;2022-12-18T02:43:49;101124.53;;;-10.07;100.00
11041;BME280;5573;49.592;8.662;2022-12-18T02:46:42;101132.69;;;-10.02;100.00
11041;BME280;5573;49.592;8.662;2022-12-18T02:49:40;101095.97;;;-10.25;100.00
11041;BME280;5573;49.592;8.662;2022-12-18T02:52:39;101133.78;;;-10.09;100.00
11041;BME280;5573;49.592;8.662;2022-12-18T02:55:43;101126.22;;;-10.19;100.00
11041;BME280;5573;49.592;8.662;2022-12-18T02:58:51;101108.72;;;-10.33;100.00
11041;BME280;5573;49.592;8.662;2022-12-18T03:02:06;101104.53;;;-10.23;100.00
11041;BME280;5573;49.592;8.662;2022-12-18T03:05:07;101120.56;;;-10.29;100.00
11041;BME280;5573;49.592;8.662;2022-12-18T03:08:06;101129.94;;;-10.27;100.00
11041;BME280;5573;49.592;8.662;2022-12-18T03:11:03;101130.72;;;-10.13;100.00
11041;BME280;5573;49.592;8.662;2022-12-18T03:13:59;101123.97;;;-10.15;100.00
11041;BME280;5573;49.592;8.662;2022-12-18T03:16:52;101134.81;;;-10.17;100.00
11041;BME280;5573;49.592;8.662;2022-12-18T03:19:43;101098.91;;;-10.39;100.00
11041;BME280;5573;49.592;8.662;2022-12-18T03:22:35;101149.13;;;-10.11;100.00
11041;BME280;5573;49.592;8.662;2022-12-18T03:25:27;101153.44;;;-10.17;100.00
11041;BME280;5573;49.592;8.662;2022-12-18T03:28:20;101170.84;;;-10.14;100.00
11041;BME280;5573;49.592;8.662;2022-12-18T03:31:22;101167.16;;;-10.13;100.00
11041;BME280;5573;49.592;8.662;2022-12-18T03:34:15;101150.63;;;-9.84;100.00
11041;BME280;5573;49.592;8.662;2022-12-18T03:37:07;101138.13;;;-9.83;100.00
11041;BME280;5573;49.592;8.662;2022-12-18T03:39:57;101119.09;;;-9.80;100.00
11041;BME280;5573;49.592;8.662;2022-12-18T03:42:49;101063.56;;;-10.15;100.00
11041;BME280;5573;49.592;8.662;2022-12-18T03:45:44;101108.69;;;-9.88;100.00
11041;BME280;5573;49.592;8.662;2022-12-18T03:48:43;101139.97;;;-9.84;100.00
11041;BME280;5573;49.592;8.662;2022-12-18T03:51:41;101152.81;;;-9.74;100.00
11041;BME280;5573;49.592;8.662;2022-12-18T03:54:38;101145.16;;;-9.64;100.00
11041;BME280;5573;49.592;8.662;2022-12-18T03:57:33;101130.59;;;-9.54;100.00
11041;BME280;5573;49.592;8.662;2022-12-18T04:00:25;101135.50;;;-9.58;100.00
11041;BME280;5573;49.592;8.662;2022-12-18T04:03:26;101128.09;;;-9.81;100.00
11041;BME280;5573;49.592;8.662;2022-12-18T04:06:25;101128.28;;;-9.76;100.00
11041;BME280;5573;49.592;8.662;2022-12-18T04:09:17;101133.94;;;-10.04;100.00
11041;BME280;5573;49.592;8.662;2022-12-18T04:12:10;101146.09;;;-10.22;100.00
11041;BME280;5573;49.592;8.662;2022-12-18T04:15:06;101148.81;;;-10.28;100.00
11041;BME280;5573;49.592;8.662;2022-12-18T04:17:59;101150.06;;;-10.37;100.00
11041;BME280;5573;49.592;8.662;2022-12-18T04:21:01;101148.88;;;-10.35;100.00
11041;BME280;5573;49.592;8.662;2022-12-18T04:23:55;101142.28;;;-10.32;100.00
11041;BME280;5573;49.592;8.662;2022-12-18T04:26:45;101095.31;;;-10.52;100.00
11041;BME280;5573;49.592;8.662;2022-12-18T04:29:37;101136.09;;;-10.26;100.00
11041;BME280;5573;49.592;8.662;2022-12-18T04:32:36;101077.31;;;-10.50;100.00
11041;BME280;5573;49.592;8.662;2022-12-18T04:35:25;101125.03;;;-10.23;100.00
11041;BME280;5573;49.592;8.662;2022-12-18T04:38:16;101113.78;;;-10.25;100.00
11041;BME280;5573;49.592;8.662;2022-12-18T04:41:16;101128.28;;;-10.21;100.00
11041;BME280;5573;49.592;8.662;2022-12-18T04:44:08;101129.13;;;-10.27;100.00
11041;BME280;5573;49.592;8.662;2022-12-18T04:46:57;101119.53;;;-10.28;100.00
11041;BME280;5573;49.592;8.662;2022-12-18T04:49:47;101122.97;;;-10.21;100.00
11041;BME280;5573;49.592;8.662;2022-12-18T04:52:36;101125.53;;;-10.01;100.00
11041;BME280;5573;49.592;8.662;2022-12-18T04:55:25;101133.84;;;-9.84;100.00
11041;BME280;5573;49.592;8.662;2022-12-18T04:58:16;101126.81;;;-9.78;100.00
11041;BME280;5573;49.592;8.662;2022-12-18T05:01:05;101131.50;;;-9.67;100.00
11041;BME280;5573;49.592;8.662;2022-12-18T05:04:02;101123.97;;;-9.77;100.00
11041;BME280;5573;49.592;8.662;2022-12-18T05:06:52;101130.84;;;-9.63;100.00
11041;BME280;5573;49.592;8.662;2022-12-18T05:09:41;101129.59;;;-9.92;100.00
11041;BME280;5573;49.592;8.662;2022-12-18T05:12:35;101136.69;;;-9.79;100.00
11041;BME280;5573;49.592;8.662;2022-12-18T05:15:52;101142.50;;;-9.57;100.00
11041;BME280;5573;49.592;8.662;2022-12-18T05:18:50;101142.81;;;-9.47;100.00
11041;BME280;5573;49.592;8.662;2022-12-18T05:21:39;101144.91;;;-9.55;100.00
11041;BME280;5573;49.592;8.662;2022-12-18T05:24:35;101158.53;;;-9.38;100.00
11041;BME280;5573;49.592;8.662;2022-12-18T05:27:25;101156.38;;;-9.23;100.00
11041;BME280;5573;49.592;8.662;2022-12-18T05:30:15;101174.44;;;-9.25;100.00
11041;BME280;5573;49.592;8.662;2022-12-18T05:33:07;101168.44;;;-9.21;100.00
11041;BME280;5573;49.592;8.662;2022-12-18T05:36:02;101166.00;;;-9.22;100.00
11041;BME280;5573;49.592;8.662;2022-12-18T05:38:52;101159.94;;;-9.11;100.00
11041;BME280;5573;49.592;8.662;2022-12-18T05:41:41;101150.06;;;-9.04;100.00
11041;BME280;5573;49.592;8.662;2022-12-18T05:44:31;101139.13;;;-9.21;100.00
11041;BME280;5573;49.592;8.662;2022-12-18T05:47:22;101145.72;;;-9.23;100.00
11041;BME280;5573;49.592;8.662;2022-12-18T05:50:13;101148.75;;;-9.20;100.00
11041;BME280;5573;49.592;8.662;2022-12-18T05:53:04;101149.53;;;-9.12;100.00
11041;BME280;5573;49.592;8.662;2022-12-18T05:55:53;101148.69;;;-9.13;100.00
11041;BME280;5573;49.592;8.662;2022-12-18T05:58:51;101147.88;;;-9.13;100.00
11041;BME280;5573;49.592;8.662;2022-12-18T06:01:41;101150.94;;;-9.10;100.00
11041;BME280;5573;49.592;8.662;2022-12-18T06:04:30;101148.19;;;-9.03;100.00
11041;BME280;5573;49.592;8.662;2022-12-18T06:07:20;101151.47;;;-9.01;100.00
11041;BME280;5573;49.592;8.662;2022-12-18T06:10:10;101146.59;;;-9.04;100.00
11041;BME280;5573;49.592;8.662;2022-12-18T06:12:59;101078.25;;;-9.49;100.00
11041;BME280;5573;49.592;8.662;2022-12-18T06:15:47;101156.81;;;-9.01;100.00
11041;BME280;5573;49.592;8.662;2022-12-18T06:18:36;101163.13;;;-8.95;100.00
11041;BME280;5573;49.592;8.662;2022-12-18T06:21:24;101155.59;;;-9.05;100.00
11041;BME280;5573;49.592;8.662;2022-12-18T06:24:14;101167.13;;;-9.11;100.00
11041;BME280;5573;49.592;8.662;2022-12-18T06:27:04;101171.00;;;-9.32;100.00
11041;BME280;5573;49.592;8.662;2022-12-18T06:29:53;101172.63;;;-9.31;100.00
11041;BME280;5573;49.592;8.662;2022-12-18T06:32:50;101164.38;;;-9.55;100.00
11041;BME280;5573;49.592;8.662;2022-12-18T06:35:46;101175.00;;;-9.48;100.00
11041;BME280;5573;49.592;8.662;2022-12-18T06:38:37;101186.47;;;-9.48;100.00
11041;BME280;5573;49.592;8.662;2022-12-18T06:41:29;101189.53;;;-9.44;100.00
11041;BME280;5573;49.592;8.662;2022-12-18T06:44:18;101195.03;;;-9.39;100.00
11041;BME280;5573;49.592;8.662;2022-12-18T06:47:07;101197.94;;;-9.47;100.00
11041;BME280;5573;49.592;8.662;2022-12-18T06:49:56;101197.09;;;-9.41;100.00
11041;BME280;5573;49.592;8.662;2022-12-18T06:52:44;101192.97;;;-9.37;100.00
11041;BME280;5573;49.592;8.662;2022-12-18T06:55:33;101207.22;;;-9.25;100.00
11041;BME280;5573;49.592;8.662;2022-12-18T06:58:24;101192.16;;;-9.37;100.00
11041;BME280;5573;49.592;8.662;2022-12-18T07:01:13;101213.22;;;-9.29;100.00
11041;BME280;5573;49.592;8.662;2022-12-18T07:03:42;101217.91;;;-9.25;100.00
11041;BME280;5573;49.592;8.662;2022-12-18T07:06:16;101221.41;;;-9.31;100.00
11041;BME280;5573;49.592;8.662;2022-12-18T07:08:46;101222.53;;;-9.13;100.00
11041;BME280;5573;49.592;8.662;2022-12-18T07:11:15;101234.28;;;-9.21;100.00
11041;BME280;5573;49.592;8.662;2022-12-18T07:13:46;101159.53;;;-9.65;100.00
11041;BME280;5573;49.592;8.662;2022-12-18T07:16:16;101232.72;;;-9.04;100.00
11041;BME280;5573;49.592;8.662;2022-12-18T07:18:51;101245.34;;;-9.24;100.00
11041;BME280;5573;49.592;8.662;2022-12-18T07:21:22;101233.44;;;-9.22;100.00
11041;BME280;5573;49.592;8.662;2022-12-18T07:23:51;101234.56;;;-9.04;100.00
11041;BME280;5573;49.592;8.662;2022-12-18T07:26:21;101239.97;;;-9.17;100.00
11041;BME280;5573;49.592;8.662;2022-12-18T07:28:54;101237.19;;;-8.97;100.00
11041;BME280;5573;49.592;8.662;2022-12-18T07:31:26;101228.34;;;-8.98;100.00
11041;BME280;5573;49.592;8.662;2022-12-18T07:33:55;101239.91;;;-9.04;100.00
11041;BME280;5573;49.592;8.662;2022-12-18T07:36:24;101236.50;;;-9.18;100.00
11041;BME280;5573;49.592;8.662;2022-12-18T07:38:55;101229.22;;;-9.36;100.00
11041;BME280;5573;49.592;8.662;2022-12-18T07:41:24;101222.34;;;-9.50;100.00
11041;BME280;5573;49.592;8.662;2022-12-18T07:43:55;101209.44;;;-9.53;100.00
11041;BME280;5573;49.592;8.662;2022-12-18T07:46:29;101216.47;;;-9.66;100.00
11041;BME280;5573;49.592;8.662;2022-12-18T07:49:05;101214.88;;;-9.67;100.00
11041;BME280;5573;49.592;8.662;2022-12-18T07:51:44;101209.81;;;-9.82;100.00
11041;BME280;5573;49.592;8.662;2022-12-18T07:54:22;101204.00;;;-9.72;100.00
11041;BME280;5573;49.592;8.662;2022-12-18T07:57:01;101217.53;;;-9.67;100.00
11041;BME280;5573;49.592;8.662;2022-12-18T08:00:05;101211.19;;;-9.72;100.00
11041;BME280;5573;49.592;8.662;2022-12-18T08:02:41;101220.63;;;-9.76;100.00
11041;BME280;5573;49.592;8.662;2022-12-18T08:05:11;101207.19;;;-9.88;100.00
11041;BME280;5573;49.592;8.662;2022-12-18T08:07:43;101220.59;;;-9.70;100.00
11041;BME280;5573;49.592;8.662;2022-12-18T08:10:13;101225.31;;;-9.65;100.00
11041;BME280;5573;49.592;8.662;2022-12-18T08:12:42;101219.75;;;-9.57;100.00
11041;BME280;5573;49.592;8.662;2022-12-18T08:15:16;101222.97;;;-9.55;100.00
11041;BME280;5573;49.592;8.662;2022-12-18T08:17:48;101233.78;;;-9.43;100.00
11041;BME280;5573;49.592;8.662;2022-12-18T08:20:24;101237.31;;;-9.49;100.00
11041;BME280;5573;49.592;8.662;2022-12-18T08:22:59;101242.66;;;-9.56;100.00
11041;BME280;5573;49.592;8.662;2022-12-18T08:25:30;101241.00;;;-9.50;100.00
11041;BME280;5573;49.592;8.662;2022-12-18T08:28:00;101229.91;;;-9.47;100.00
11041;BME280;5573;49.592;8.662;2022-12-18T08:30:36;101238.31;;;-9.44;100.00
11041;BME280;5573;49.592;8.662;2022-12-18T08:33:06;101237.22;;;-9.36;100.00
11041;BME280;5573;49.592;8.662;2022-12-18T08:35:41;101232.97;;;-9.44;100.00
11041;BME280;5573;49.592;8.662;2022-12-18T08:38:12;101242.69;;;-9.24;100.00
11041;BME280;5573;49.592;8.662;2022-12-18T08:40:45;101231.88;;;-9.36;100.00
11041;BME280;5573;49.592;8.662;2022-12-18T08:43:14;101234.28;;;-9.21;100.00
11041;BME280;5573;49.592;8.662;2022-12-18T08:46:15;101225.03;;;-9.18;100.00
11041;BME280;5573;49.592;8.662;2022-12-18T08:48:54;101210.66;;;-9.17;100.00
11041;BME280;5573;49.592;8.662;2022-12-18T08:51:34;101203.25;;;-9.15;100.00
11041;BME280;5573;49.592;8.662;2022-12-18T08:54:25;101194.50;;;-9.23;100.00
11041;BME280;5573;49.592;8.662;2022-12-18T08:56:59;101199.84;;;-8.97;100.00
11041;BME280;5573;49.592;8.662;2022-12-18T08:59:33;101209.25;;;-8.95;100.00
11041;BME280;5573;49.592;8.662;2022-12-18T09:02:05;101204.13;;;-8.96;100.00
11041;BME280;5573;49.592;8.662;2022-12-18T09:04:43;101192.94;;;-8.80;100.00
11041;BME280;5573;49.592;8.662;2022-12-18T09:07:26;101197.03;;;-8.59;100.00
11041;BME280;5573;49.592;8.662;2022-12-18T09:09:54;101187.78;;;-8.56;100.00
11041;BME280;5573;49.592;8.662;2022-12-18T09:12:23;101172.94;;;-8.52;100.00
11041;BME280;5573;49.592;8.662;2022-12-18T09:14:51;101172.28;;;-8.48;100.00
11041;BME280;5573;49.592;8.662;2022-12-18T09:17:21;101165.91;;;-8.28;100.00
11041;BME280;5573;49.592;8.662;2022-12-18T09:19:50;101156.06;;;-8.16;100.00
11041;BME280;5573;49.592;8.662;2022-12-18T09:22:18;101166.53;;;-7.96;100.00
11041;BME280;5573;49.592;8.662;2022-12-18T09:24:48;101179.66;;;-7.64;100.00
11041;BME280;5573;49.592;8.662;2022-12-18T09:27:16;101174.97;;;-7.50;100.00
11041;BME280;5573;49.592;8.662;2022-12-18T09:29:44;101167.66;;;-7.43;100.00
11041;BME280;5573;49.592;8.662;2022-12-18T09:32:12;101178.38;;;-7.31;100.00
11041;BME280;5573;49.592;8.662;2022-12-18T09:34:49;101189.41;;;-7.28;100.00
11041;BME280;5573;49.592;8.662;2022-12-18T09:37:17;101189.41;;;-7.28;100.00
11041;BME280;5573;49.592;8.662;2022-12-18T09:39:45;101195.50;;;-7.21;100.00
11041;BME280;5573;49.592;8.662;2022-12-18T09:42:17;101210.50;;;-7.08;100.00
11041;BME280;5573;49.592;8.662;2022-12-18T09:44:49;101198.66;;;-7.00;100.00
11041;BME280;5573;49.592;8.662;2022-12-18T09:47:22;101206.00;;;-6.84;100.00
11041;BME280;5573;49.592;8.662;2022-12-18T09:49:56;101210.06;;;-6.81;100.00
11041;BME280;5573;49.592;8.662;2022-12-18T09:52:28;101217.97;;;-6.75;100.00
11041;BME280;5573;49.592;8.662;2022-12-18T09:55:03;101223.13;;;-6.61;100.00
11041;BME280;5573;49.592;8.662;2022-12-18T09:57:37;101226.94;;;-6.45;100.00
11041;BME280;5573;49.592;8.662;2022-12-18T10:00:15;101232.22;;;-6.39;100.00
11041;BME280;5573;49.592;8.662;2022-12-18T10:02:46;101248.16;;;-6.32;100.00
11041;BME280;5573;49.592;8.662;2022-12-18T10:05:17;101201.69;;;-6.49;100.00
11041;BME280;5573;49.592;8.662;2022-12-18T10:07:55;101236.78;;;-5.99;100.00
11041;BME280;5573;49.592;8.662;2022-12-18T10:10:33;101228.53;;;-5.97;100.00
11041;BME280;5573;49.592;8.662;2022-12-18T10:13:12;101225.75;;;-6.02;100.00
11041;BME280;5573;49.592;8.662;2022-12-18T10:15:52;101228.84;;;-5.94;100.00
11041;BME280;5573;49.592;8.662;2022-12-18T10:18:31;101225.34;;;-5.94;100.00
11041;BME280;5573;49.592;8.662;2022-12-18T10:21:12;101221.78;;;-5.71;100.00
11041;BME280;5573;49.592;8.662;2022-12-18T10:23:48;101222.31;;;-5.57;100.00
11041;BME280;5573;49.592;8.662;2022-12-18T10:26:20;101224.00;;;-5.39;100.00
11041;BME280;5573;49.592;8.662;2022-12-18T10:28:48;101215.97;;;-5.22;100.00
11041;BME280;5573;49.592;8.662;2022-12-18T10:31:20;101218.91;;;-5.24;100.00
11041;BME280;5573;49.592;8.662;2022-12-18T10:33:51;101212.81;;;-5.02;100.00
11041;BME280;5573;49.592;8.662;2022-12-18T10:36:24;101209.41;;;-4.81;100.00
11041;BME280;5573;49.592;8.662;2022-12-18T10:38:52;101208.50;;;-4.70;100.00
11041;BME280;5573;49.592;8.662;2022-12-18T10:41:25;101211.34;;;-4.59;100.00
11041;BME280;5573;49.592;8.662;2022-12-18T10:44:11;101207.13;;;-4.55;100.00
11041;BME280;5573;49.592;8.662;2022-12-18T10:46:40;101200.25;;;-4.46;100.00
11041;BME280;5573;49.592;8.662;2022-12-18T10:49:19;101193.25;;;-4.47;100.00
11041;BME280;5573;49.592;8.662;2022-12-18T10:51:51;101188.53;;;-4.40;100.00
11041;BME280;5573;49.592;8.662;2022-12-18T10:54:32;101184.94;;;-4.45;100.00
11041;BME280;5573;49.592;8.662;2022-12-18T10:57:14;101197.16;;;-4.38;100.00
11041;BME280;5573;49.592;8.662;2022-12-18T10:59:51;101173.47;;;-4.41;100.00
11041;BME280;5573;49.592;8.662;2022-12-18T11:02:27;101199.75;;;-4.43;100.00
11041;BME280;5573;49.592;8.662;2022-12-18T11:04:59;101194.31;;;-4.48;100.00
11041;BME280;5573;49.592;8.662;2022-12-18T11:07:47;101193.38;;;-4.37;100.00
11041;BME280;5573;49.592;8.662;2022-12-18T11:10:16;101196.81;;;-4.41;100.00
11041;BME280;5573;49.592;8.662;2022-12-18T11:12:44;101192.03;;;-4.39;100.00
11041;BME280;5573;49.592;8.662;2022-12-18T11:15:18;101186.13;;;-4.58;100.00
11041;BME280;5573;49.592;8.662;2022-12-18T11:17:48;101197.94;;;-4.59;100.00
11041;BME280;5573;49.592;8.662;2022-12-18T11:20:27;101202.00;;;-4.57;100.00
11041;BME280;5573;49.592;8.662;2022-12-18T11:23:00;101209.63;;;-4.48;100.00
11041;BME280;5573;49.592;8.662;2022-12-18T11:25:31;101209.22;;;-4.40;100.00
11041;BME280;5573;49.592;8.662;2022-12-18T11:28:04;101199.31;;;-4.35;100.00
11041;BME280;5573;49.592;8.662;2022-12-18T11:30:34;101195.19;;;-4.25;100.00
11041;BME280;5573;49.592;8.662;2022-12-18T11:33:04;101192.50;;;-4.25;100.00
11041;BME280;5573;49.592;8.662;2022-12-18T11:35:48;101201.88;;;-4.45;100.00
11041;BME280;5573;49.592;8.662;2022-12-18T11:38:21;101205.97;;;-4.42;100.00
11041;BME280;5573;49.592;8.662;2022-12-18T11:40:56;101203.56;;;-4.39;100.00
11041;BME280;5573;49.592;8.662;2022-12-18T11:43:28;101214.13;;;-4.15;100.00
11041;BME280;5573;49.592;8.662;2022-12-18T11:46:02;101220.97;;;-4.24;100.00
11041;BME280;5573;49.592;8.662;2022-12-18T11:48:35;101209.66;;;-4.26;100.00
11041;BME280;5573;49.592;8.662;2022-12-18T11:51:12;101192.34;;;-4.36;100.00
11041;BME280;5573;49.592;8.662;2022-12-18T11:53:46;101182.78;;;-4.26;100.00
11041;BME280;5573;49.592;8.662;2022-12-18T11:56:27;101173.72;;;-4.20;100.00
11041;BME280;5573;49.592;8.662;2022-12-18T11:59:05;101173.47;;;-3.97;100.00
11041;BME280;5573;49.592;8.662;2022-12-18T12:01:45;101168.19;;;-3.92;100.00
11041;BME280;5573;49.592;8.662;2022-12-18T12:04:35;101172.06;;;-4.04;100.00
11041;BME280;5573;49.592;8.662;2022-12-18T12:07:17;101173.66;;;-4.03;100.00
11041;BME280;5573;49.592;8.662;2022-12-18T12:09:56;101186.09;;;-3.97;100.00
11041;BME280;5573;49.592;8.662;2022-12-18T12:12:35;101193.94;;;-3.96;100.00
11041;BME280;5573;49.592;8.662;2022-12-18T12:15:24;101188.97;;;-3.82;100.00
11041;BME280;5573;49.592;8.662;2022-12-18T12:18:01;101185.66;;;-3.89;100.00
11041;BME280;5573;49.592;8.662;2022-12-18T12:20:44;101181.09;;;-3.66;100.00
11041;BME280;5573;49.592;8.662;2022-12-18T12:23:20;101189.25;;;-3.83;100.00
11041;BME280;5573;49.592;8.662;2022-12-18T12:26:01;101189.81;;;-3.81;100.00
11041;BME280;5573;49.592;8.662;2022-12-18T12:28:47;101196.50;;;-3.57;100.00
11041;BME280;5573;49.592;8.662;2022-12-18T12:31:27;101195.38;;;-3.61;100.00
11041;BME280;5573;49.592;8.662;2022-12-18T12:34:03;101186.19;;;-3.65;100.00
11041;BME280;5573;49.592;8.662;2022-12-18T12:36:39;101184.41;;;-3.54;100.00
11041;BME280;5573;49.592;8.662;2022-12-18T12:39:15;101181.03;;;-3.44;100.00
11041;BME280;5573;49.592;8.662;2022-12-18T12:41:46;101182.03;;;-3.51;100.00
11041;BME280;5573;49.592;8.662;2022-12-18T12:44:38;101174.53;;;-3.49;100.00
11041;BME280;5573;49.592;8.662;2022-12-18T12:47:13;101161.53;;;-3.57;100.00
11041;BME280;5573;49.592;8.662;2022-12-18T12:49:47;101161.59;;;-3.52;100.00
11041;BME280;5573;49.592;8.662;2022-12-18T12:52:24;101162.09;;;-3.55;100.00
11041;BME280;5573;49.592;8.662;2022-12-18T12:54:55;101172.56;;;-3.58;100.00
11041;BME280;5573;49.592;8.662;2022-12-18T12:57:31;101166.91;;;-3.57;100.00
11041;BME280;5573;49.592;8.662;2022-12-18T13:00:04;101141.03;;;-3.63;100.00
11041;BME280;5573;49.592;8.662;2022-12-18T13:02:39;101124.72;;;-3.83;100.00
11041;BME280;5573;49.592;8.662;2022-12-18T13:05:18;101116.19;;;-4.24;100.00
11041;BME280;5573;49.592;8.662;2022-12-18T13:07:51;101121.47;;;-4.07;100.00
11041;BME280;5573;49.592;8.662;2022-12-18T13:10:33;101108.66;;;-3.73;100.00
11041;BME280;5573;49.592;8.662;2022-12-18T13:13:05;101109.41;;;-3.51;100.00
11041;BME280;5573;49.592;8.662;2022-12-18T13:15:38;101108.44;;;-3.39;100.00
11041;BME280;5573;49.592;8.662;2022-12-18T13:18:13;101095.66;;;-3.54;100.00
11041;BME280;5573;49.592;8.662;2022-12-18T13:20:44;101085.25;;;-3.45;100.00
11041;BME280;5573;49.592;8.662;2022-12-18T13:23:33;101086.09;;;-3.40;100.00
11041;BME280;5573;49.592;8.662;2022-12-18T13:26:28;101090.16;;;-3.37;100.00
11041;BME280;5573;49.592;8.662;2022-12-18T13:28:59;101086.97;;;-3.34;100.00
11041;BME280;5573;49.592;8.662;2022-12-18T13:31:58;101088.09;;;-3.25;100.00
11041;BME280;5573;49.592;8.662;2022-12-18T13:34:29;101076.97;;;-3.39;100.00
11041;BME280;5573;49.592;8.662;2022-12-18T13:39:59;101071.81;;;-3.45;100.00
11041;BME280;5573;49.592;8.662;2022-12-18T13:42:45;101080.03;;;-3.57;100.00
11041;BME280;5573;49.592;8.662;2022-12-18T13:45:39;101076.88;;;-3.49;100.00
11041;BME280;5573;49.592;8.662;2022-12-18T13:48:16;101081.94;;;-3.58;100.00
11041;BME280;5573;49.592;8.662;2022-12-18T13:50:50;101083.31;;;-3.50;100.00
11041;BME280;5573;49.592;8.662;2022-12-18T13:53:23;101070.41;;;-3.53;100.00
11041;BME280;5573;49.592;8.662;2022-12-18T13:55:53;101081.47;;;-3.50;100.00
11041;BME280;5573;49.592;8.662;2022-12-18T13:58:22;101081.75;;;-3.46;100.00
11041;BME280;5573;49.592;8.662;2022-12-18T14:00:51;101082.56;;;-3.45;100.00
11041;BME280;5573;49.592;8.662;2022-12-18T14:03:21;101082.25;;;-3.49;100.00
11041;BME280;5573;49.592;8.662;2022-12-18T14:05:55;101083.69;;;-3.41;100.00
11041;BME280;5573;49.592;8.662;2022-12-18T14:08:25;101034.22;;;-3.68;100.00
11041;BME280;5573;49.592;8.662;2022-12-18T14:10:55;101076.63;;;-3.48;100.00
11041;BME280;5573;49.592;8.662;2022-12-18T14:13:26;101073.84;;;-3.58;100.00